Time;durP1;ratioP1;P1;durP2;ratioP2;P2;SDS_P1;SDS_P2;PMS_P1;PMS_P2;Temp;Humidity;BMP_temperature;BMP_pressure;BME280_temperature;BME280_humidity;BME280_pressure;Samples;Min_cycle;Max_cycle;Signal;HPM_P1;HPM_P2
2022/08/13 00:01:05;;;;;;;2.75;1.30;;;;;;;17.16;59.55;96511.53;5039384;28;20446;-67
2022/08/13 00:03:32;;;;;;;3.05;1.40;;;;;;;17.17;59.64;96509.53;5039819;28;20045;-67
2022/08/13 00:05:59;;;;;;;3.25;1.30;;;;;;;17.15;60.10;96506.41;5021314;28;20037;-66
2022/08/13 00:08:25;;;;;;;2.17;1.30;;;;;;;17.14;60.24;96500.09;5033750;28;20064;-66
2022/08/13 00:10:51;;;;;;;3.67;1.55;;;;;;;17.11;60.55;96495.38;5039087;28;20044;-68
2022/08/13 00:13:18;;;;;;;1.90;1.20;;;;;;;17.04;60.97;96497.44;5033701;28;20037;-67
2022/08/13 00:15:46;;;;;;;3.20;1.33;;;;;;;16.95;61.72;96497.94;5037607;28;20091;-67
2022/08/13 00:18:18;;;;;;;2.78;1.55;;;;;;;17.00;61.29;96505.78;5032055;28;20128;-67
2022/08/13 00:20:48;;;;;;;3.78;1.38;;;;;;;16.98;61.59;96499.91;5039318;28;20037;-68
2022/08/13 00:23:24;;;;;;;5.10;1.60;;;;;;;16.89;62.00;96505.94;5015253;28;20137;-68
2022/08/13 00:25:54;;;;;;;2.70;1.63;;;;;;;16.87;62.10;96496.44;5041843;28;20037;-69
2022/08/13 00:28:21;;;;;;;;;;;;;;;16.84;62.33;96494.53;5012942;28;20075;-68
2022/08/13 00:30:47;;;;;;;6.57;1.52;;;;;;;16.83;62.63;96499.25;5039002;28;19913;-69
2022/08/13 00:33:17;;;;;;;2.75;1.35;;;;;;;16.75;62.73;96498.53;5019816;28;20199;-67
2022/08/13 00:35:44;;;;;;;2.67;1.48;;;;;;;16.88;62.01;96498.03;5038186;28;20048;-66
2022/08/13 00:38:21;;;;;;;3.25;1.50;;;;;;;16.93;61.98;96490.06;5033376;28;20106;-65
2022/08/13 00:40:50;;;;;;;3.75;1.58;;;;;;;16.86;62.29;96494.91;5038703;28;20041;-66
2022/08/13 00:43:16;;;;;;;6.60;1.50;;;;;;;16.77;62.76;96487.06;5032218;28;20047;-66
2022/08/13 00:45:42;;;;;;;3.08;1.60;;;;;;;16.80;62.71;96494.53;5037370;28;20041;-66
2022/08/13 00:50:56;;;;;;;2.05;1.38;;;;;;;16.73;63.14;96492.63;5039159;28;20094;-66
2022/08/13 00:53:23;;;;;;;4.03;1.60;;;;;;;16.57;64.26;96492.41;5032878;28;20049;-66
2022/08/13 00:55:55;;;;;;;2.10;1.38;;;;;;;16.55;64.25;96495.59;5038346;28;20502;-66
2022/08/13 00:58:23;;;;;;;4.85;1.88;;;;;;;16.46;65.00;96489.78;5031906;28;20041;-66
2022/08/13 01:00:50;;;;;;;3.67;1.30;;;;;;;16.44;64.98;96479.13;5038023;28;20498;-66
2022/08/13 01:03:20;;;;;;;7.53;2.57;;;;;;;16.34;65.70;96484.75;5016596;28;20049;-67
2022/08/13 01:05:47;;;;;;;2.10;1.50;;;;;;;16.35;65.35;96492.63;5039832;28;20041;-66
2022/08/13 01:08:19;;;;;;;3.58;1.77;;;;;;;16.27;66.33;96487.59;4997470;28;20068;-66
2022/08/13 01:10:48;;;;;;;2.72;1.60;;;;;;;16.21;66.53;96488.03;5021948;28;20110;-67
2022/08/13 01:13:14;;;;;;;3.70;1.75;;;;;;;16.11;67.34;96490.88;5034101;28;20068;-66
2022/08/13 01:15:42;;;;;;;2.50;1.80;;;;;;;16.05;67.75;96498.81;5054165;28;20029;-66
2022/08/13 01:18:13;;;;;;;4.47;1.60;;;;;;;16.03;67.92;96492.94;5002355;28;20052;-64
2022/08/13 01:20:47;;;;;;;2.63;1.98;;;;;;;15.95;68.15;96492.19;5036433;28;20509;-66
2022/08/13 01:23:14;;;;;;;5.30;1.40;;;;;;;15.89;68.70;96493.03;5033654;28;20107;-67
2022/08/13 01:25:41;;;;;;;4.57;1.60;;;;;;;15.80;68.96;96494.28;5039508;28;20123;-64
2022/08/13 01:28:08;;;;;;;2.83;1.60;;;;;;;15.77;69.36;96500.63;5033298;28;20029;-64
2022/08/13 01:30:34;;;;;;;3.85;1.58;;;;;;;15.71;69.78;96491.16;5019016;28;20059;-63
2022/08/13 01:33:02;;;;;;;4.43;1.48;;;;;;;15.66;70.21;96494.34;5019250;28;20040;-63
2022/08/13 01:35:28;;;;;;;2.80;1.77;;;;;;;15.60;70.39;96495.97;5017632;28;20045;-64
2022/08/13 01:37:57;;;;;;;3.15;1.65;;;;;;;15.55;71.02;96491.66;5039708;28;20033;-63
2022/08/13 01:40:23;;;;;;;4.82;1.70;;;;;;;15.48;71.39;96509.06;5033371;28;20384;-63
2022/08/13 01:42:51;;;;;;;3.53;1.60;;;;;;;15.47;71.47;96509.47;5039340;28;20041;-63
2022/08/13 01:45:18;;;;;;;3.78;2.53;;;;;;;15.43;72.19;96511.44;5032664;28;20047;-62
2022/08/13 01:50:29;;;;;;;2.05;1.50;;;;;;;15.41;71.85;96519.34;5037099;28;20079;-63
2022/08/13 01:53:01;;;;;;;2.03;1.38;;;;;;;15.31;72.96;96523.75;5038175;28;20106;-63
2022/08/13 01:55:38;;;;;;;2.78;1.40;;;;;;;15.37;72.60;96521.34;5034750;28;20055;-63
2022/08/13 01:58:10;;;;;;;3.72;1.90;;;;;;;15.35;72.65;96521.75;5034623;28;20044;-63
2022/08/13 02:00:37;;;;;;;2.10;1.60;;;;;;;15.35;72.40;96527.28;5035985;28;20045;-62
2022/08/13 02:03:05;;;;;;;2.40;1.75;;;;;;;15.30;72.69;96522.16;5027121;28;20549;-63
2022/08/13 02:05:32;;;;;;;3.30;2.10;;;;;;;15.26;73.09;96522.19;5039150;28;20501;-63
2022/08/13 02:08:00;;;;;;;5.88;1.70;;;;;;;15.30;72.96;96511.13;5045519;28;20098;-66
2022/08/13 02:10:26;;;;;;;5.43;1.83;;;;;;;15.18;73.87;96517.91;5044091;28;20049;-65
2022/08/13 02:12:52;;;;;;;3.33;2.05;;;;;;;15.10;74.79;96519.88;5045512;28;20099;-63
2022/08/13 02:15:17;;;;;;;8.23;2.17;;;;;;;15.13;74.96;96520.28;5036794;28;20041;-64
2022/08/13 02:17:45;;;;;;;5.13;2.10;;;;;;;15.17;74.71;96521.06;5042792;28;20041;-63
2022/08/13 02:20:17;;;;;;;3.92;2.05;;;;;;;15.14;75.13;96528.16;5037556;28;20516;-63
2022/08/13 02:22:45;;;;;;;2.70;1.63;;;;;;;15.10;75.38;96528.16;5024905;28;20055;-63
2022/08/13 02:25:12;;;;;;;4.45;1.73;;;;;;;15.01;75.77;96525.06;5037278;28;20143;-63
2022/08/13 02:27:38;;;;;;;3.53;2.10;;;;;;;14.98;76.30;96516.78;5041398;28;20041;-61
2022/08/13 02:30:07;;;;;;;3.22;1.90;;;;;;;15.01;76.26;96513.25;5036849;28;20048;-62
2022/08/13 02:32:35;;;;;;;3.05;1.95;;;;;;;14.97;76.83;96515.22;5042572;28;20191;-63
2022/08/13 02:35:01;;;;;;;3.80;2.05;;;;;;;14.94;77.16;96510.50;5041752;28;20090;-62
2022/08/13 02:37:29;;;;;;;4.30;2.17;;;;;;;14.89;77.79;96512.50;5035413;28;20041;-63
2022/08/13 02:39:54;;;;;;;2.72;1.83;;;;;;;14.88;77.91;96518.41;5043357;28;20370;-63
2022/08/13 02:42:22;;;;;;;2.28;1.70;;;;;;;14.85;78.48;96513.69;5037164;28;20033;-63
2022/08/13 02:44:49;;;;;;;4.55;2.25;;;;;;;14.89;78.59;96511.69;5058375;28;20147;-63
2022/08/13 02:47:17;;;;;;;3.97;2.13;;;;;;;14.86;78.84;96505.03;5035297;28;20041;-61
2022/08/13 02:49:42;;;;;;;3.30;1.65;;;;;;;14.78;79.66;96506.22;5039043;28;20049;-63
2022/08/13 02:52:09;;;;;;;5.63;2.10;;;;;;;14.72;80.04;96508.59;5028169;28;20044;-62
2022/08/13 02:54:43;;;;;;;3.03;1.98;;;;;;;14.70;80.34;96507.44;5042596;28;20076;-61
2022/08/13 02:57:10;;;;;;;3.08;1.90;;;;;;;14.78;79.71;96510.97;5043171;28;20056;-61
2022/08/13 02:59:36;;;;;;;3.30;2.03;;;;;;;14.78;79.87;96500.72;5040824;28;20405;-62
2022/08/13 03:02:04;;;;;;;6.05;2.10;;;;;;;14.74;80.80;96508.22;5039731;28;20603;-62
2022/08/13 03:04:30;;;;;;;6.35;2.55;;;;;;;14.77;80.26;96507.41;5040771;28;20111;-66
2022/08/13 03:06:56;;;;;;;5.35;2.00;;;;;;;14.68;80.86;96507.06;5042185;28;20102;-62
2022/08/13 03:09:22;;;;;;;4.57;2.60;;;;;;;14.63;81.46;96511.00;5036480;28;20725;-62
2022/08/13 03:11:49;;;;;;;4.72;2.20;;;;;;;14.61;81.48;96509.84;5039793;28;20048;-62
2022/08/13 03:14:16;;;;;;;3.28;1.90;;;;;;;14.60;82.05;96511.00;5029442;28;20124;-59
2022/08/13 03:16:42;;;;;;;3.13;2.03;;;;;;;14.64;81.27;96509.81;5041471;28;20379;-61
2022/08/13 03:19:08;;;;;;;5.70;2.35;;;;;;;14.61;81.76;96502.34;5025080;28;20041;-61
2022/08/13 03:21:36;;;;;;;2.80;2.03;;;;;;;14.64;81.73;96509.81;5041041;28;20228;-59
2022/08/13 03:24:03;;;;;;;3.85;2.17;;;;;;;14.62;82.21;96481.06;5041926;28;20044;-62
2022/08/13 03:26:30;;;;;;;4.63;2.35;;;;;;;14.67;81.72;96503.50;5037797;28;20055;-62
2022/08/13 03:28:55;;;;;;;3.65;2.50;;;;;;;14.67;81.45;96497.97;5040234;28;20045;-62
2022/08/13 03:31:22;;;;;;;3.08;1.95;;;;;;;14.71;80.72;96496.03;5033286;28;20588;-61
2022/08/13 03:33:48;;;;;;;2.45;1.90;;;;;;;14.74;80.71;96501.91;5041782;28;20063;-61
2022/08/13 03:36:14;;;;;;;3.67;2.10;;;;;;;14.85;79.78;96495.16;5015204;28;20033;-62
2022/08/13 03:38:40;;;;;;;3.92;2.20;;;;;;;14.83;80.30;96489.28;5040383;28;20045;-62
2022/08/13 03:41:14;;;;;;;3.72;1.75;;;;;;;14.78;80.42;96486.16;5016290;28;20086;-64
2022/08/13 03:43:42;;;;;;;7.43;2.00;;;;;;;14.93;79.63;96481.34;5040959;28;20052;-62
2022/08/13 03:46:12;;;;;;;6.00;2.03;;;;;;;14.85;80.05;96473.09;5035248;28;20043;-62
2022/08/13 03:48:39;;;;;;;3.13;1.90;;;;;;;14.86;79.94;96476.69;5007076;28;20037;-62
2022/08/13 03:51:06;;;;;;;4.25;2.10;;;;;;;14.77;80.53;96474.34;5027102;28;20144;-62
2022/08/13 03:53:32;;;;;;;2.95;2.42;;;;;;;14.86;79.71;96466.41;5040747;28;20075;-60
2022/08/13 03:55:58;;;;;;;3.08;2.03;;;;;;;14.85;79.80;96470.34;5040331;28;20040;-62
2022/08/13 03:58:25;;;;;;;4.65;2.70;;;;;;;14.89;79.52;96467.56;5038803;28;20515;-62
2022/08/13 04:00:50;;;;;;;3.35;1.98;;;;;;;14.91;79.19;96471.53;5044859;28;20041;-63
2022/08/13 04:03:28;;;;;;;5.93;2.30;;;;;;;14.95;79.33;96471.50;5036389;28;20044;-60
2022/08/13 04:06:03;;;;;;;2.85;1.83;;;;;;;14.87;80.00;96464.44;5038766;28;20498;-62
2022/08/13 04:08:34;;;;;;;3.78;2.03;;;;;;;14.87;80.09;96464.44;5039622;28;20041;-60
2022/08/13 04:11:01;;;;;;;7.28;2.15;;;;;;;14.83;80.59;96458.94;5041074;28;20047;-62
2022/08/13 04:13:27;;;;;;;3.45;2.00;;;;;;;14.97;79.53;96460.09;5034159;28;20139;-61
2022/08/13 04:15:52;;;;;;;3.65;2.20;;;;;;;14.92;79.74;96455.75;5040311;28;20175;-59
2022/08/13 04:18:18;;;;;;;5.70;2.40;;;;;;;14.90;80.49;96464.44;5033811;28;20040;-62
2022/08/13 04:20:54;;;;;;;7.30;2.13;;;;;;;14.97;79.86;96466.38;5038716;28;20447;-61
2022/08/13 04:23:21;;;;;;;3.25;2.08;;;;;;;14.92;80.30;96475.06;5034678;28;20033;-59
2022/08/13 04:25:49;;;;;;;4.38;2.10;;;;;;;14.88;80.52;96479.81;5036610;28;20386;-59
2022/08/13 04:28:18;;;;;;;4.13;2.05;;;;;;;14.91;80.54;96465.22;5026432;28;20048;-61
2022/08/13 04:30:44;;;;;;;3.00;2.33;;;;;;;14.87;80.92;96470.75;5040894;28;20033;-61
2022/08/13 04:33:14;;;;;;;6.88;2.42;;;;;;;14.85;80.91;96466.81;5010446;28;20487;-59
2022/08/13 04:35:41;;;;;;;3.60;2.10;;;;;;;14.91;80.94;96476.25;5037184;28;20056;-60
2022/08/13 04:38:07;;;;;;;3.28;2.30;;;;;;;14.88;81.19;96477.06;5035937;28;20528;-61
2022/08/13 04:40:38;;;;;;;6.28;2.95;;;;;;;14.93;80.37;96478.59;5044704;28;20113;-62
2022/08/13 04:43:05;;;;;;;6.82;2.13;;;;;;;14.91;81.15;96473.50;5036090;28;20045;-62
2022/08/13 04:45:32;;;;;;;5.32;2.80;;;;;;;14.91;81.22;96477.03;5040446;28;20048;-62
2022/08/13 04:48:09;;;;;;;7.25;2.38;;;;;;;14.87;81.90;96484.56;5030999;28;20037;-60
2022/08/13 04:50:36;;;;;;;3.65;2.30;;;;;;;14.97;81.16;96474.66;5024925;28;20047;-62
2022/08/13 04:53:10;;;;;;;4.38;2.70;;;;;;;14.96;81.29;96486.06;5038640;28;20056;-63
2022/08/13 04:55:37;;;;;;;3.58;2.47;;;;;;;15.03;80.78;96477.78;5031147;28;20052;-60
2022/08/13 04:58:08;;;;;;;5.10;2.40;;;;;;;15.07;80.74;96484.03;5016192;28;20054;-64
2022/08/13 05:00:34;;;;;;;3.03;2.22;;;;;;;15.12;80.62;96493.88;5021915;28;20052;-59
2022/08/13 05:03:22;;;;;;;4.03;2.25;;;;;;;15.18;79.64;96490.31;5039798;28;20040;-62
2022/08/13 05:05:50;;;;;;;4.35;2.40;;;;;;;15.19;79.66;96489.13;5039410;28;20040;-62
2022/08/13 05:08:16;;;;;;;4.78;2.13;;;;;;;15.27;79.82;96489.88;5031046;28;20136;-63
2022/08/13 05:10:44;;;;;;;3.83;2.10;;;;;;;15.39;79.69;96499.66;5040002;28;20063;-60
2022/08/13 05:13:30;;;;;;;7.80;2.20;;;;;;;15.36;79.79;96492.97;5033355;28;20048;-62
2022/08/13 05:16:02;;;;;;;2.95;2.13;;;;;;;16.20;75.67;96491.97;5038299;28;20046;-60
2022/08/13 05:18:30;;;;;;;5.75;2.20;;;;;;;16.45;74.97;96490.94;5013596;28;20048;-62
2022/08/13 05:21:00;;;;;;;6.65;2.28;;;;;;;16.80;72.52;96495.31;5034684;28;20505;-61
2022/08/13 05:23:26;;;;;;;12.68;2.72;;;;;;;17.14;71.63;96494.56;5032620;28;20083;-62
2022/08/13 05:25:52;;;;;;;4.50;2.22;;;;;;;17.43;70.37;96508.00;5029795;28;20408;-62
2022/08/13 05:28:18;;;;;;;6.05;2.22;;;;;;;17.04;71.00;96502.97;5030941;28;20083;-61
2022/08/13 05:30:46;;;;;;;5.25;1.95;;;;;;;18.39;65.37;96506.94;5037229;28;20494;-61
2022/08/13 05:33:18;;;;;;;6.65;2.03;;;;;;;18.88;63.51;96510.03;5031474;28;20041;-63
2022/08/13 05:35:47;;;;;;;5.95;2.33;;;;;;;19.94;58.16;96496.28;5039572;28;20043;-62
2022/08/13 05:38:14;;;;;;;5.95;2.22;;;;;;;18.30;65.26;96499.94;5028001;28;20640;-63
2022/08/13 05:40:40;;;;;;;2.78;1.60;;;;;;;19.47;61.56;96498.09;5035391;28;20080;-63
2022/08/13 05:43:11;;;;;;;7.30;2.30;;;;;;;20.60;56.98;96497.78;5016666;28;20065;-65
2022/08/13 05:45:38;;;;;;;3.50;1.77;;;;;;;19.29;61.14;96509.59;5039060;28;20093;-62
2022/08/13 05:48:03;;;;;;;7.13;1.80;;;;;;;18.84;63.29;96512.88;5035564;28;20124;-62
2022/08/13 05:50:33;;;;;;;3.22;2.00;;;;;;;19.27;61.38;96514.00;5039498;28;20204;-61
2022/08/13 05:53:08;;;;;;;;;;;;;;;18.75;62.20;96504.31;5038644;28;20094;-61
2022/08/13 05:55:35;;;;;;;3.78;1.98;;;;;;;18.48;64.10;96512.72;5039240;28;19912;-61
2022/08/13 05:58:03;;;;;;;3.20;2.20;;;;;;;18.98;63.13;96500.72;5039651;28;20441;-61
2022/08/13 06:03:25;;;;;;;3.03;1.92;;;;;;;18.16;66.25;96516.81;5032712;28;20037;-62
2022/08/13 06:06:01;;;;;;;2.72;1.75;;;;;;;18.17;65.74;96514.84;5035349;28;20424;-62
2022/08/13 06:08:31;;;;;;;3.80;1.77;;;;;;;18.34;64.96;96511.75;5031799;28;20064;-62
2022/08/13 06:10:58;;;;;;;3.45;2.30;;;;;;;18.66;64.56;96510.41;5028979;28;20137;-63
2022/08/13 06:13:25;;;;;;;4.05;2.03;;;;;;;19.22;62.30;96506.19;5033247;28;20547;-63
2022/08/13 06:15:58;;;;;;;4.35;2.25;;;;;;;19.36;62.34;96507.88;5038482;28;20040;-61
2022/08/13 06:18:31;;;;;;;4.60;2.30;;;;;;;19.94;58.35;96507.41;5015532;28;20045;-62
2022/08/13 06:20:59;;;;;;;3.63;2.20;;;;;;;19.46;61.04;96509.63;5035079;28;20510;-61
2022/08/13 06:23:27;;;;;;;3.83;2.28;;;;;;;19.61;61.30;96510.88;5028066;28;20127;-62
2022/08/13 06:25:54;;;;;;;2.40;1.67;;;;;;;19.15;62.81;96520.22;5038521;28;20411;-62
2022/08/13 06:28:28;;;;;;;4.05;2.35;;;;;;;19.02;64.56;96514.53;5027430;28;20134;-62
2022/08/13 06:30:55;;;;;;;4.32;2.33;;;;;;;19.19;61.75;96509.81;5028651;28;20041;-61
2022/08/13 06:33:23;;;;;;;3.65;2.10;;;;;;;19.03;62.81;96516.88;5033589;28;20512;-61
2022/08/13 06:36:00;;;;;;;5.18;2.00;;;;;;;19.05;62.65;96520.00;5035110;28;20041;-60
2022/08/13 06:38:30;;;;;;;4.00;2.08;;;;;;;18.50;63.04;96513.09;5027391;28;20515;-60
2022/08/13 06:40:59;;;;;;;;;;;;;;;18.50;64.06;96508.31;5023816;28;20178;-62
2022/08/13 06:43:26;;;;;;;4.90;2.08;;;;;;;18.65;62.62;96516.38;5015889;28;19917;-60
2022/08/13 06:45:52;;;;;;;5.55;2.30;;;;;;;19.17;61.86;96503.91;5039224;28;20070;-61
2022/08/13 06:48:17;;;;;;;3.72;2.50;;;;;;;19.05;62.87;96511.69;5012697;28;20033;-60
2022/08/13 06:50:44;;;;;;;3.13;2.17;;;;;;;18.55;63.64;96515.38;5037644;28;20048;-59
2022/08/13 06:53:10;;;;;;;4.05;2.15;;;;;;;18.98;63.11;96513.78;5005271;28;20041;-60
2022/08/13 06:55:36;;;;;;;4.22;2.10;;;;;;;18.67;63.48;96522.28;5041139;28;20175;-65
2022/08/13 06:58:08;;;;;;;4.88;2.15;;;;;;;18.66;63.89;96515.94;5037955;28;20044;-66
2022/08/13 07:00:35;;;;;;;3.25;1.98;;;;;;;18.34;65.57;96527.63;5027925;28;20445;-64
2022/08/13 07:03:02;;;;;;;4.32;2.10;;;;;;;19.73;60.72;96520.56;5028198;28;20041;-63
2022/08/13 07:05:38;;;;;;;2.45;1.75;;;;;;;19.91;59.55;96516.59;4969403;28;20522;-64
2022/08/13 07:08:07;;;;;;;5.55;2.55;;;;;;;20.03;58.86;96515.91;5025392;28;20123;-67
2022/08/13 07:10:34;;;;;;;4.50;1.77;;;;;;;20.18;59.15;96519.13;5038801;28;21595;-66
2022/08/13 07:13:00;;;;;;;3.50;1.88;;;;;;;20.13;58.92;96520.44;5036985;28;20413;-66
2022/08/13 07:15:26;;;;;;;4.55;2.13;;;;;;;20.83;56.92;96520.28;5035654;28;20041;-66
2022/08/13 07:17:55;;;;;;;3.30;1.75;;;;;;;20.48;55.95;96512.41;5042356;28;20390;-66
2022/08/13 07:20:22;;;;;;;5.00;1.83;;;;;;;19.55;59.74;96523.69;5001846;28;20050;-66
2022/08/13 07:22:48;;;;;;;2.58;2.00;;;;;;;20.04;58.02;96520.25;5042470;28;20044;-65
2022/08/13 07:25:13;;;;;;;5.35;1.92;;;;;;;19.58;60.06;96527.63;5017195;28;20041;-67
2022/08/13 07:27:41;;;;;;;4.95;2.10;;;;;;;19.75;58.35;96534.78;5039362;28;20052;-65
2022/08/13 07:30:14;;;;;;;3.38;1.92;;;;;;;19.69;59.42;96525.38;5038390;28;20029;-63
2022/08/13 07:32:41;;;;;;;3.53;1.85;;;;;;;20.76;56.20;96527.59;5039224;28;20123;-64
2022/08/13 07:35:08;;;;;;;5.82;1.60;;;;;;;22.68;50.59;96532.56;5033854;28;20066;-63
2022/08/13 07:37:36;;;;;;;2.67;1.60;;;;;;;21.45;52.88;96525.69;5040871;28;20041;-65
2022/08/13 07:40:04;;;;;;;3.83;1.65;;;;;;;21.42;52.11;96523.78;5037524;28;20102;-67
2022/08/13 07:42:35;;;;;;;4.50;1.90;;;;;;;21.71;51.62;96529.31;5022169;28;20128;-66
2022/08/13 07:45:01;;;;;;;3.53;1.80;;;;;;;20.89;54.37;96526.88;5039836;28;20029;-66
2022/08/13 07:47:29;;;;;;;6.28;2.13;;;;;;;21.36;54.96;96527.13;5036229;28;20045;-67
2022/08/13 07:49:58;;;;;;;4.07;1.60;;;;;;;21.48;53.29;96527.59;5028828;28;20378;-66
2022/08/13 07:52:26;;;;;;;4.88;2.70;;;;;;;21.88;53.53;96528.00;5032449;28;20139;-66
2022/08/13 07:54:53;;;;;;;4.30;1.50;;;;;;;21.08;53.52;96531.50;5043878;28;20537;-65
2022/08/13 07:57:19;;;;;;;6.10;1.63;;;;;;;21.05;54.04;96524.03;5037086;28;20037;-66
2022/08/13 07:59:48;;;;;;;3.05;1.70;;;;;;;22.04;52.40;96535.47;5031595;28;20040;-64
2022/08/13 08:02:14;;;;;;;3.78;1.70;;;;;;;22.24;49.04;96534.44;5007755;28;20052;-66
2022/08/13 08:04:41;;;;;;;3.30;1.80;;;;;;;22.04;50.37;96538.25;5035688;28;20041;-64
2022/08/13 08:07:09;;;;;;;3.17;1.70;;;;;;;21.83;50.75;96530.56;5019117;28;20094;-66
2022/08/13 08:09:35;;;;;;;4.03;1.30;;;;;;;21.44;51.75;96535.28;5006211;28;20037;-65
2022/08/13 08:14:50;;;;;;;8.25;2.00;;;;;;;21.66;51.08;96536.25;5038678;28;20083;-64
2022/08/13 08:17:17;;;;;;;5.10;1.70;;;;;;;22.77;48.96;96534.66;5031959;28;20120;-66
2022/08/13 08:19:46;;;;;;;2.92;1.70;;;;;;;22.04;50.69;96532.69;5039596;28;20120;-66
2022/08/13 08:22:13;;;;;;;2.45;1.48;;;;;;;22.15;50.28;96541.47;5032210;28;20486;-65
2022/08/13 08:24:39;;;;;;;3.85;1.63;;;;;;;21.95;50.49;96541.72;5022378;28;20048;-64
2022/08/13 08:27:09;;;;;;;4.93;1.90;;;;;;;22.26;50.38;96531.97;5038324;28;20029;-67
2022/08/13 08:29:36;;;;;;;3.30;1.33;;;;;;;23.32;47.75;96534.34;5040507;28;20052;-64
2022/08/13 08:32:08;;;;;;;4.75;1.83;;;;;;;22.06;49.63;96533.00;5018454;28;20037;-68
2022/08/13 08:34:36;;;;;;;3.70;2.03;;;;;;;22.80;48.78;96530.97;5035720;28;20065;-66
2022/08/13 08:37:02;;;;;;;3.70;1.63;;;;;;;22.41;49.29;96533.09;5038273;28;20037;-66
2022/08/13 08:44:59;;;;;;;4.80;1.38;;;;;;;22.59;49.19;96528.94;5038417;28;20557;-65
2022/08/13 08:47:28;;;;;;;3.08;1.38;;;;;;;22.11;49.81;96523.28;5030548;28;20402;-67
2022/08/13 08:49:57;;;;;;;1.90;1.48;;;;;;;22.75;47.92;96525.97;5036275;28;20041;-66
2022/08/13 08:53:19;;;;;;;7.80;1.50;;;;;;;22.83;47.77;96524.50;5015640;28;20060;-64
2022/08/13 08:55:11;;;;;;;2.72;1.50;;;;;;;22.52;48.28;96525.13;5032048;28;20174;-65
2022/08/13 08:57:37;;;;;;;3.45;1.63;;;;;;;23.05;47.30;96513.38;5035625;28;20052;-65
2022/08/13 09:00:05;;;;;;;2.88;1.42;;;;;;;23.27;44.61;96524.53;5037110;28;20064;-67
2022/08/13 09:02:33;;;;;;;2.25;1.30;;;;;;;23.03;46.46;96523.38;5038494;28;20109;-65
2022/08/13 09:05:01;;;;;;;4.22;1.50;;;;;;;23.18;46.04;96529.28;5039379;28;20056;-64
2022/08/13 09:07:29;;;;;;;2.78;1.30;;;;;;;23.56;44.78;96526.25;5034473;28;20546;-65
2022/08/13 09:09:57;;;;;;;4.45;1.80;;;;;;;23.79;45.90;96521.41;5037946;28;20036;-65
2022/08/13 09:12:26;;;;;;;4.47;2.17;;;;;;;24.50;44.46;96523.34;5033181;28;20049;-65
2022/08/13 09:14:52;;;;;;;2.95;0.98;;;;;;;24.55;41.81;96522.75;5036554;28;20041;-66
2022/08/13 09:17:19;;;;;;;4.22;1.20;;;;;;;24.22;43.31;96520.50;5032323;28;20033;-66
2022/08/13 09:19:45;;;;;;;2.35;1.40;;;;;;;25.37;42.61;96523.25;5038005;28;20110;-65
2022/08/13 09:22:14;;;;;;;4.22;1.20;;;;;;;25.17;42.44;96518.91;5033683;28;20119;-66
2022/08/13 09:24:40;;;;;;;;;;;;;;;24.96;40.50;96529.03;5037597;28;20068;-65
2022/08/13 09:27:06;;;;;;;2.38;1.50;;;;;;;24.43;42.46;96527.25;5014829;28;20122;-64
2022/08/13 09:29:32;;;;;;;3.45;1.50;;;;;;;24.59;43.10;96525.41;5016690;28;20045;-66
2022/08/13 09:31:58;;;;;;;2.25;1.45;;;;;;;24.97;41.90;96513.78;5039029;28;20032;-66
2022/08/13 09:34:24;;;;;;;4.07;1.50;;;;;;;25.55;41.42;96522.41;5032237;28;20041;-67
2022/08/13 09:36:55;;;;;;;4.05;1.42;;;;;;;25.03;41.46;96521.53;5037307;28;20048;-67
2022/08/13 09:39:31;;;;;;;4.15;1.50;;;;;;;26.24;39.79;96517.97;5031608;28;20071;-67
2022/08/13 09:41:56;;;;;;;3.13;1.55;;;;;;;26.09;40.80;96509.50;5036178;28;20120;-65
2022/08/13 09:44:25;;;;;;;3.70;1.50;;;;;;;27.50;37.96;96511.59;5033078;28;20152;-66
2022/08/13 09:46:51;;;;;;;2.33;1.10;;;;;;;29.51;34.46;96505.63;5038104;28;20083;-65
2022/08/13 09:49:16;;;;;;;3.13;1.98;;;;;;;29.77;34.73;96509.72;5015068;28;20061;-65
2022/08/13 09:51:42;;;;;;;2.63;1.30;;;;;;;29.74;33.18;96505.81;5036631;28;20544;-65
2022/08/13 09:54:09;;;;;;;4.45;1.33;;;;;;;25.52;39.60;96500.94;5032071;28;20044;-68
2022/08/13 09:56:37;;;;;;;2.97;1.10;;;;;;;25.14;41.42;96510.66;5037819;28;20473;-66
2022/08/13 09:59:04;;;;;;;7.40;1.33;;;;;;;25.16;40.50;96503.31;5035468;28;20093;-67
2022/08/13 10:01:29;;;;;;;4.95;1.77;;;;;;;25.69;40.07;96504.94;5035002;28;20609;-65
2022/08/13 10:03:54;;;;;;;3.08;1.20;;;;;;;24.73;41.10;96498.84;5021952;28;20041;-66
2022/08/13 10:06:20;;;;;;;2.45;1.13;;;;;;;25.24;41.08;96500.19;5034461;28;20044;-66
2022/08/13 10:08:46;;;;;;;3.60;1.20;;;;;;;25.41;40.04;96492.25;5039134;28;20033;-66
2022/08/13 10:11:15;;;;;;;4.68;1.40;;;;;;;26.42;38.79;96497.44;5015279;28;20039;-66
2022/08/13 10:13:41;;;;;;;2.70;1.30;;;;;;;26.93;36.95;96501.31;5037215;28;20044;-66
2022/08/13 10:16:07;;;;;;;5.05;2.10;;;;;;;26.12;37.05;96507.75;5032705;28;20150;-65
2022/08/13 10:18:32;;;;;;;3.45;1.25;;;;;;;25.53;38.99;96496.88;5038923;28;20132;-63
2022/08/13 10:20:58;;;;;;;2.60;1.20;;;;;;;26.09;38.32;96492.66;5039938;28;20115;-66
2022/08/13 10:23:23;;;;;;;2.42;1.10;;;;;;;26.39;37.82;96498.41;5031438;28;20836;-67
2022/08/13 10:25:52;;;;;;;2.58;1.08;;;;;;;27.12;35.81;96496.31;5039134;28;20509;-64
2022/08/13 10:28:19;;;;;;;4.53;1.00;;;;;;;28.25;34.03;96494.59;5033591;28;20044;-66
2022/08/13 10:30:44;;;;;;;1.83;1.10;;;;;;;28.10;36.37;96491.84;5042807;28;20358;-66
2022/08/13 10:33:12;;;;;;;3.95;0.95;;;;;;;27.60;34.59;96487.72;5019045;28;20124;-66
2022/08/13 10:35:39;;;;;;;1.98;0.90;;;;;;;26.64;34.63;96493.59;5025721;28;20611;-64
2022/08/13 10:38:05;;;;;;;2.80;1.05;;;;;;;26.08;36.30;96481.91;5035473;28;20036;-66
2022/08/13 10:40:31;;;;;;;3.50;1.13;;;;;;;25.96;36.99;96480.84;5039477;28;20120;-67
2022/08/13 10:42:56;;;;;;;5.65;1.20;;;;;;;27.15;33.66;96474.88;5042700;28;20476;-66
2022/08/13 10:45:29;;;;;;;4.82;1.17;;;;;;;28.31;32.36;96472.94;5036539;28;20040;-65
2022/08/13 10:47:54;;;;;;;1.92;1.00;;;;;;;29.55;30.77;96472.31;5042571;28;20107;-67
2022/08/13 10:50:34;;;;;;;3.25;1.20;;;;;;;29.60;32.33;96478.47;5031640;28;20069;-67
2022/08/13 10:53:00;;;;;;;1.98;1.30;;;;;;;29.17;34.41;96479.91;5042295;28;20084;-66
2022/08/13 10:55:27;;;;;;;2.85;0.95;;;;;;;28.66;34.94;96460.84;5036402;28;20041;-65
2022/08/13 10:57:52;;;;;;;4.55;1.25;;;;;;;29.08;36.70;96465.94;5042173;28;20036;-64
2022/08/13 11:00:19;;;;;;;2.25;1.23;;;;;;;28.97;34.53;96463.00;5037173;28;20079;-64
2022/08/13 11:02:49;;;;;;;3.25;1.40;;;;;;;28.80;37.76;96465.63;5033849;28;20063;-65
2022/08/13 11:05:15;;;;;;;4.45;1.50;;;;;;;27.53;40.24;96468.44;5046218;28;20037;-66
2022/08/13 11:07:44;;;;;;;4.65;1.90;;;;;;;27.39;40.08;96461.53;5042787;28;20136;-67
2022/08/13 11:10:09;;;;;;;4.30;1.50;;;;;;;27.46;39.38;96458.34;5035330;28;20609;-66
2022/08/13 11:12:42;;;;;;;4.18;1.70;;;;;;;27.49;39.32;96455.81;5021930;28;20033;-69
2022/08/13 11:15:08;;;;;;;2.83;1.40;;;;;;;27.68;36.60;96459.19;5034839;28;20036;-66
2022/08/13 11:17:34;;;;;;;2.85;1.42;;;;;;;27.59;36.42;96446.78;5023669;28;20068;-65
2022/08/13 11:20:06;;;;;;;2.25;1.10;;;;;;;27.64;36.17;96448.91;5039774;28;20092;-65
2022/08/13 11:22:32;;;;;;;3.22;1.10;;;;;;;26.83;36.75;96450.03;5040709;28;20040;-66
2022/08/13 11:25:00;;;;;;;2.03;1.10;;;;;;;26.98;37.28;96457.72;5041520;28;20390;-67
2022/08/13 11:27:27;;;;;;;2.75;1.55;;;;;;;27.30;38.54;96470.09;5035881;28;20044;-66
2022/08/13 11:29:53;;;;;;;2.03;1.30;;;;;;;26.85;38.53;96463.63;5041197;28;20037;-65
2022/08/13 11:32:20;;;;;;;4.22;1.63;;;;;;;26.93;36.32;96466.81;5033751;28;20052;-64
2022/08/13 11:34:45;;;;;;;3.75;1.40;;;;;;;26.65;37.84;96459.41;5040018;28;20059;-65
2022/08/13 11:37:11;;;;;;;4.10;1.50;;;;;;;26.95;38.68;96456.63;5037060;28;20489;-66
2022/08/13 11:39:36;;;;;;;3.25;1.55;;;;;;;26.85;36.63;96466.44;5023694;28;20045;-65
2022/08/13 11:42:02;;;;;;;2.30;1.58;;;;;;;26.78;38.78;96464.00;5022638;28;20072;-66
2022/08/13 11:44:27;;;;;;;6.07;3.08;;;;;;;26.84;38.59;96457.19;5035431;28;20036;-66
2022/08/13 11:46:53;;;;;;;4.82;1.50;;;;;;;27.11;36.96;96463.84;5038368;28;20755;-66
2022/08/13 11:49:20;;;;;;;2.30;1.13;;;;;;;27.58;34.64;96469.78;5034124;28;20096;-65
2022/08/13 11:51:46;;;;;;;3.92;1.20;;;;;;;27.08;36.49;96470.41;5041781;28;20128;-66
2022/08/13 11:54:12;;;;;;;4.10;1.30;;;;;;;27.38;35.49;96462.78;5036098;28;20122;-66